sensor_id;sensor_type;location;lat;lon;timestamp;temperature;humidity
2565;DHT22;1292;48.020;7.822;2023-02-18T06:47:01;11.60;99.90
2565;DHT22;1292;48.020;7.822;2023-02-18T06:49:28;11.60;99.90
2565;DHT22;1292;48.020;7.822;2023-02-18T06:51:55;11.60;99.90
2565;DHT22;1292;48.020;7.822;2023-02-18T06:54:22;11.60;99.90
2565;DHT22;1292;48.020;7.822;2023-02-18T06:56:50;11.60;99.90
2565;DHT22;1292;48.020;7.822;2023-02-18T06:59:17;11.60;99.90
2565;DHT22;1292;48.020;7.822;2023-02-18T07:01:44;11.70;99.90
2565;DHT22;1292;48.020;7.822;2023-02-18T07:04:12;11.70;99.90
2565;DHT22;1292;48.020;7.822;2023-02-18T07:06:39;11.70;99.90
2565;DHT22;1292;48.020;7.822;2023-02-18T07:09:06;11.70;99.90
2565;DHT22;1292;48.020;7.822;2023-02-18T07:11:32;11.80;99.90
2565;DHT22;1292;48.020;7.822;2023-02-18T07:13:59;11.90;99.90
2565;DHT22;1292;48.020;7.822;2023-02-18T07:16:26;11.90;99.90
2565;DHT22;1292;48.020;7.822;2023-02-18T07:18:53;12.00;99.90
2565;DHT22;1292;48.020;7.822;2023-02-18T07:21:21;12.00;99.90
2565;DHT22;1292;48.020;7.822;2023-02-18T07:23:47;12.00;99.90
2565;DHT22;1292;48.020;7.822;2023-02-18T07:26:14;12.00;99.90
2565;DHT22;1292;48.020;7.822;2023-02-18T07:28:41;12.00;99.90
2565;DHT22;1292;48.020;7.822;2023-02-18T07:31:08;12.00;99.90
2565;DHT22;1292;48.020;7.822;2023-02-18T07:33:35;12.10;99.90
2565;DHT22;1292;48.020;7.822;2023-02-18T07:36:02;12.10;99.90
2565;DHT22;1292;48.020;7.822;2023-02-18T07:38:31;12.10;99.90
2565;DHT22;1292;48.020;7.822;2023-02-18T07:40:58;12.20;99.90
2565;DHT22;1292;48.020;7.822;2023-02-18T07:43:25;12.20;99.90
2565;DHT22;1292;48.020;7.822;2023-02-18T07:45:51;12.30;99.90
2565;DHT22;1292;48.020;7.822;2023-02-18T07:48:18;12.30;99.90
2565;DHT22;1292;48.020;7.822;2023-02-18T07:50:45;12.30;99.90
2565;DHT22;1292;48.020;7.822;2023-02-18T07:53:14;12.30;99.90
2565;DHT22;1292;48.020;7.822;2023-02-18T07:55:43;12.40;99.90
2565;DHT22;1292;48.020;7.822;2023-02-18T07:58:16;12.40;99.90
2565;DHT22;1292;48.020;7.822;2023-02-18T08:00:43;12.50;99.90
2565;DHT22;1292;48.020;7.822;2023-02-18T08:03:12;12.50;99.90
2565;DHT22;1292;48.020;7.822;2023-02-18T08:05:38;12.50;99.90
2565;DHT22;1292;48.020;7.822;2023-02-18T08:08:05;12.50;99.90
2565;DHT22;1292;48.020;7.822;2023-02-18T08:10:32;12.50;99.90
2565;DHT22;1292;48.020;7.822;2023-02-18T08:13:00;12.60;99.90
2565;DHT22;1292;48.020;7.822;2023-02-18T08:15:27;12.60;99.90
2565;DHT22;1292;48.020;7.822;2023-02-18T08:17:54;12.60;99.90
2565;DHT22;1292;48.020;7.822;2023-02-18T08:20:21;12.60;99.90
2565;DHT22;1292;48.020;7.822;2023-02-18T08:22:47;12.60;99.90
2565;DHT22;1292;48.020;7.822;2023-02-18T08:25:14;12.70;99.90
2565;DHT22;1292;48.020;7.822;2023-02-18T08:27:41;12.70;99.90
2565;DHT22;1292;48.020;7.822;2023-02-18T08:30:10;12.60;99.90
2565;DHT22;1292;48.020;7.822;2023-02-18T08:32:37;12.60;99.90
2565;DHT22;1292;48.020;7.822;2023-02-18T08:35:05;12.70;99.90
2565;DHT22;1292;48.020;7.822;2023-02-18T08:37:32;12.70;99.90
2565;DHT22;1292;48.020;7.822;2023-02-18T08:40:00;12.70;99.90
2565;DHT22;1292;48.020;7.822;2023-02-18T08:42:27;12.70;99.90
2565;DHT22;1292;48.020;7.822;2023-02-18T08:44:54;12.80;99.90
2565;DHT22;1292;48.020;7.822;2023-02-18T08:47:22;12.80;99.90
2565;DHT22;1292;48.020;7.822;2023-02-18T08:49:49;12.90;99.90
2565;DHT22;1292;48.020;7.822;2023-02-18T08:52:16;12.90;99.90
2565;DHT22;1292;48.020;7.822;2023-02-18T08:54:42;12.90;99.90
2565;DHT22;1292;48.020;7.822;2023-02-18T08:57:09;12.90;99.90
2565;DHT22;1292;48.020;7.822;2023-02-18T08:59:36;12.90;99.90
2565;DHT22;1292;48.020;7.822;2023-02-18T09:02:03;12.90;99.90
2565;DHT22;1292;48.020;7.822;2023-02-18T09:04:32;12.90;99.90
2565;DHT22;1292;48.020;7.822;2023-02-18T09:06:58;12.90;99.90
2565;DHT22;1292;48.020;7.822;2023-02-18T09:09:25;12.90;99.90
2565;DHT22;1292;48.020;7.822;2023-02-18T09:11:52;12.90;99.90
2565;DHT22;1292;48.020;7.822;2023-02-18T09:14:19;12.90;99.90
2565;DHT22;1292;48.020;7.822;2023-02-18T09:16:45;12.90;99.90
2565;DHT22;1292;48.020;7.822;2023-02-18T09:19:12;12.90;99.90
2565;DHT22;1292;48.020;7.822;2023-02-18T09:21:40;12.90;99.90
2565;DHT22;1292;48.020;7.822;2023-02-18T09:24:07;13.00;99.90
2565;DHT22;1292;48.020;7.822;2023-02-18T09:26:35;13.00;99.90
2565;DHT22;1292;48.020;7.822;2023-02-18T09:29:02;13.10;99.90
2565;DHT22;1292;48.020;7.822;2023-02-18T09:31:29;13.10;99.90
2565;DHT22;1292;48.020;7.822;2023-02-18T09:33:58;13.20;99.90
2565;DHT22;1292;48.020;7.822;2023-02-18T09:36:25;13.20;99.90
2565;DHT22;1292;48.020;7.822;2023-02-18T09:38:54;13.20;99.90
2565;DHT22;1292;48.020;7.822;2023-02-18T09:41:28;13.20;99.90
2565;DHT22;1292;48.020;7.822;2023-02-18T09:43:58;13.30;99.90
2565;DHT22;1292;48.020;7.822;2023-02-18T09:46:29;13.30;99.90
2565;DHT22;1292;48.020;7.822;2023-02-18T09:49:01;13.30;99.90
2565;DHT22;1292;48.020;7.822;2023-02-18T09:51:28;13.30;99.90
2565;DHT22;1292;48.020;7.822;2023-02-18T09:53:56;13.30;99.90
2565;DHT22;1292;48.020;7.822;2023-02-18T09:56:27;13.30;99.90
2565;DHT22;1292;48.020;7.822;2023-02-18T09:58:56;13.30;99.90
2565;DHT22;1292;48.020;7.822;2023-02-18T10:01:27;13.40;99.90
2565;DHT22;1292;48.020;7.822;2023-02-18T10:03:57;13.40;99.90
2565;DHT22;1292;48.020;7.822;2023-02-18T10:06:29;13.50;99.90
2565;DHT22;1292;48.020;7.822;2023-02-18T10:09:00;13.60;99.90
2565;DHT22;1292;48.020;7.822;2023-02-18T10:11:30;13.70;99.90
2565;DHT22;1292;48.020;7.822;2023-02-18T10:13:58;13.70;99.90
2565;DHT22;1292;48.020;7.822;2023-02-18T10:16:27;13.80;99.90
2565;DHT22;1292;48.020;7.822;2023-02-18T10:18:56;13.80;99.90
2565;DHT22;1292;48.020;7.822;2023-02-18T10:21:25;13.90;99.90
2565;DHT22;1292;48.020;7.822;2023-02-18T10:23:58;14.00;99.90
2565;DHT22;1292;48.020;7.822;2023-02-18T10:26:26;14.10;99.90
2565;DHT22;1292;48.020;7.822;2023-02-18T10:28:54;14.20;99.90
2565;DHT22;1292;48.020;7.822;2023-02-18T10:31:26;14.20;99.90
2565;DHT22;1292;48.020;7.822;2023-02-18T10:33:58;14.40;99.90
2565;DHT22;1292;48.020;7.822;2023-02-18T10:36:30;14.50;99.90
2565;DHT22;1292;48.020;7.822;2023-02-18T10:39:18;14.50;99.90
2565;DHT22;1292;48.020;7.822;2023-02-18T10:41:55;14.60;99.90
2565;DHT22;1292;48.020;7.822;2023-02-18T10:44:30;14.60;99.90
2565;DHT22;1292;48.020;7.822;2023-02-18T10:47:08;14.60;99.90
2565;DHT22;1292;48.020;7.822;2023-02-18T10:49:55;14.60;99.90
2565;DHT22;1292;48.020;7.822;2023-02-18T10:52:23;14.70;99.90
2565;DHT22;1292;48.020;7.822;2023-02-18T10:54:59;14.60;99.90
2565;DHT22;1292;48.020;7.822;2023-02-18T10:57:28;14.60;99.90
2565;DHT22;1292;48.020;7.822;2023-02-18T10:59:59;14.70;99.90
2565;DHT22;1292;48.020;7.822;2023-02-18T11:02:28;14.60;99.90
2565;DHT22;1292;48.020;7.822;2023-02-18T11:04:58;14.60;99.90
2565;DHT22;1292;48.020;7.822;2023-02-18T11:07:29;14.60;99.90
2565;DHT22;1292;48.020;7.822;2023-02-18T11:10:00;14.40;99.90
2565;DHT22;1292;48.020;7.822;2023-02-18T11:12:29;14.40;99.90
2565;DHT22;1292;48.020;7.822;2023-02-18T11:15:06;14.40;99.90
2565;DHT22;1292;48.020;7.822;2023-02-18T11:17:34;14.40;99.90
2565;DHT22;1292;48.020;7.822;2023-02-18T11:20:26;14.50;99.90
2565;DHT22;1292;48.020;7.822;2023-02-18T11:22:57;14.60;99.90
2565;DHT22;1292;48.020;7.822;2023-02-18T11:25:29;14.60;99.90
2565;DHT22;1292;48.020;7.822;2023-02-18T11:28:01;14.60;99.90
2565;DHT22;1292;48.020;7.822;2023-02-18T11:30:32;14.60;99.90
2565;DHT22;1292;48.020;7.822;2023-02-18T11:33:03;14.70;99.90
2565;DHT22;1292;48.020;7.822;2023-02-18T11:35:32;14.70;99.90
2565;DHT22;1292;48.020;7.822;2023-02-18T11:38:01;14.80;99.90
2565;DHT22;1292;48.020;7.822;2023-02-18T11:40:31;14.70;99.90
2565;DHT22;1292;48.020;7.822;2023-02-18T11:43:04;14.80;99.90
2565;DHT22;1292;48.020;7.822;2023-02-18T11:45:32;14.80;99.90
2565;DHT22;1292;48.020;7.822;2023-02-18T11:48:01;14.70;99.90
2565;DHT22;1292;48.020;7.822;2023-02-18T11:50:32;14.80;99.90
2565;DHT22;1292;48.020;7.822;2023-02-18T11:52:59;14.80;99.90
2565;DHT22;1292;48.020;7.822;2023-02-18T11:55:29;14.80;99.90
2565;DHT22;1292;48.020;7.822;2023-02-18T11:57:59;14.80;99.90
2565;DHT22;1292;48.020;7.822;2023-02-18T12:00:36;14.70;99.90
2565;DHT22;1292;48.020;7.822;2023-02-18T12:03:07;14.70;99.90
2565;DHT22;1292;48.020;7.822;2023-02-18T12:05:39;14.80;99.90
2565;DHT22;1292;48.020;7.822;2023-02-18T12:08:12;14.70;99.90
2565;DHT22;1292;48.020;7.822;2023-02-18T12:10:45;14.80;99.90
2565;DHT22;1292;48.020;7.822;2023-02-18T12:13:22;14.80;99.90
2565;DHT22;1292;48.020;7.822;2023-02-18T12:15:56;14.80;99.90
2565;DHT22;1292;48.020;7.822;2023-02-18T12:18:35;14.80;99.90
2565;DHT22;1292;48.020;7.822;2023-02-18T12:21:14;14.70;99.90
2565;DHT22;1292;48.020;7.822;2023-02-18T12:23:50;14.80;99.90
2565;DHT22;1292;48.020;7.822;2023-02-18T12:26:26;14.80;99.90
2565;DHT22;1292;48.020;7.822;2023-02-18T12:29:16;14.80;99.90
2565;DHT22;1292;48.020;7.822;2023-02-18T12:31:59;14.70;99.90
2565;DHT22;1292;48.020;7.822;2023-02-18T12:34:42;14.70;99.90
2565;DHT22;1292;48.020;7.822;2023-02-18T12:37:29;14.70;99.90
2565;DHT22;1292;48.020;7.822;2023-02-18T12:40:09;14.70;99.90
2565;DHT22;1292;48.020;7.822;2023-02-18T12:42:55;14.70;99.90
2565;DHT22;1292;48.020;7.822;2023-02-18T12:45:40;14.70;99.90
2565;DHT22;1292;48.020;7.822;2023-02-18T12:48:28;14.70;99.90
2565;DHT22;1292;48.020;7.822;2023-02-18T12:51:20;14.80;99.90
2565;DHT22;1292;48.020;7.822;2023-02-18T12:54:22;14.90;99.90
2565;DHT22;1292;48.020;7.822;2023-02-18T12:59:55;14.90;99.90
2565;DHT22;1292;48.020;7.822;2023-02-18T13:02:42;15.10;99.90
2565;DHT22;1292;48.020;7.822;2023-02-18T13:05:22;15.20;99.90
2565;DHT22;1292;48.020;7.822;2023-02-18T13:08:01;15.10;99.90
2565;DHT22;1292;48.020;7.822;2023-02-18T13:10:43;15.10;99.90
2565;DHT22;1292;48.020;7.822;2023-02-18T13:13:17;15.20;99.90
2565;DHT22;1292;48.020;7.822;2023-02-18T13:15:49;15.20;99.90
2565;DHT22;1292;48.020;7.822;2023-02-18T13:18:20;15.20;99.90
2565;DHT22;1292;48.020;7.822;2023-02-18T13:20:50;15.10;99.90
2565;DHT22;1292;48.020;7.822;2023-02-18T13:23:20;15.10;99.90
2565;DHT22;1292;48.020;7.822;2023-02-18T13:25:50;15.10;99.90
2565;DHT22;1292;48.020;7.822;2023-02-18T13:28:24;15.10;99.90
2565;DHT22;1292;48.020;7.822;2023-02-18T13:31:01;15.20;99.90
2565;DHT22;1292;48.020;7.822;2023-02-18T13:33:36;15.20;99.90
2565;DHT22;1292;48.020;7.822;2023-02-18T13:36:12;15.30;99.90
2565;DHT22;1292;48.020;7.822;2023-02-18T13:39:02;15.30;99.90
2565;DHT22;1292;48.020;7.822;2023-02-18T13:41:34;15.40;99.90
2565;DHT22;1292;48.020;7.822;2023-02-18T13:44:06;15.40;99.90
2565;DHT22;1292;48.020;7.822;2023-02-18T13:46:47;15.40;99.90
2565;DHT22;1292;48.020;7.822;2023-02-18T13:49:18;15.40;99.90
2565;DHT22;1292;48.020;7.822;2023-02-18T13:51:47;15.40;99.90
2565;DHT22;1292;48.020;7.822;2023-02-18T13:54:19;15.50;99.90
2565;DHT22;1292;48.020;7.822;2023-02-18T13:56:50;15.50;99.90
2565;DHT22;1292;48.020;7.822;2023-02-18T13:59:21;15.40;99.90
2565;DHT22;1292;48.020;7.822;2023-02-18T14:01:51;15.40;99.90
2565;DHT22;1292;48.020;7.822;2023-02-18T14:04:48;15.40;99.90
2565;DHT22;1292;48.020;7.822;2023-02-18T14:07:24;15.40;99.90
2565;DHT22;1292;48.020;7.822;2023-02-18T14:09:52;15.50;99.90
2565;DHT22;1292;48.020;7.822;2023-02-18T14:12:41;15.60;99.90
2565;DHT22;1292;48.020;7.822;2023-02-18T14:18:25;15.50;99.90
2565;DHT22;1292;48.020;7.822;2023-02-18T14:23:56;15.50;99.90
2565;DHT22;1292;48.020;7.822;2023-02-18T14:26:28;15.50;99.90
2565;DHT22;1292;48.020;7.822;2023-02-18T14:28:59;15.50;99.90
2565;DHT22;1292;48.020;7.822;2023-02-18T14:31:47;15.40;99.90
2565;DHT22;1292;48.020;7.822;2023-02-18T14:40:33;15.50;99.90
2565;DHT22;1292;48.020;7.822;2023-02-18T14:43:09;15.40;99.90
2565;DHT22;1292;48.020;7.822;2023-02-18T14:46:02;15.30;99.90
2565;DHT22;1292;48.020;7.822;2023-02-18T14:51:31;15.40;99.90
2565;DHT22;1292;48.020;7.822;2023-02-18T14:54:04;15.40;99.90
2565;DHT22;1292;48.020;7.822;2023-02-18T14:56:36;15.30;99.90
2565;DHT22;1292;48.020;7.822;2023-02-18T14:59:03;15.20;99.90
2565;DHT22;1292;48.020;7.822;2023-02-18T15:01:32;15.20;99.90
2565;DHT22;1292;48.020;7.822;2023-02-18T15:04:00;15.20;99.90
2565;DHT22;1292;48.020;7.822;2023-02-18T15:06:30;15.10;99.90
2565;DHT22;1292;48.020;7.822;2023-02-18T15:08:57;15.10;99.90
2565;DHT22;1292;48.020;7.822;2023-02-18T15:11:30;15.00;99.90
2565;DHT22;1292;48.020;7.822;2023-02-18T15:14:00;15.00;99.90
2565;DHT22;1292;48.020;7.822;2023-02-18T15:16:31;15.00;99.90
2565;DHT22;1292;48.020;7.822;2023-02-18T15:19:00;15.00;99.90
2565;DHT22;1292;48.020;7.822;2023-02-18T15:21:30;14.80;99.90
2565;DHT22;1292;48.020;7.822;2023-02-18T15:24:04;14.80;99.90
2565;DHT22;1292;48.020;7.822;2023-02-18T15:26:33;14.80;99.90
2565;DHT22;1292;48.020;7.822;2023-02-18T15:29:03;14.80;99.90
2565;DHT22;1292;48.020;7.822;2023-02-18T15:31:36;14.80;99.90
2565;DHT22;1292;48.020;7.822;2023-02-18T15:36:59;14.70;99.90
2565;DHT22;1292;48.020;7.822;2023-02-18T15:39:26;14.70;99.90
2565;DHT22;1292;48.020;7.822;2023-02-18T15:41:58;14.70;99.90
2565;DHT22;1292;48.020;7.822;2023-02-18T15:44:28;14.70;99.90
2565;DHT22;1292;48.020;7.822;2023-02-18T15:46:59;14.70;99.90
2565;DHT22;1292;48.020;7.822;2023-02-18T15:49:26;14.60;99.90
2565;DHT22;1292;48.020;7.822;2023-02-18T15:51:56;14.60;99.90
2565;DHT22;1292;48.020;7.822;2023-02-18T15:54:24;14.60;99.90
2565;DHT22;1292;48.020;7.822;2023-02-18T15:56:54;14.50;99.90
2565;DHT22;1292;48.020;7.822;2023-02-18T15:59:25;14.60;99.90
2565;DHT22;1292;48.020;7.822;2023-02-18T16:01:54;14.60;99.90
2565;DHT22;1292;48.020;7.822;2023-02-18T16:04:21;14.60;99.90
2565;DHT22;1292;48.020;7.822;2023-02-18T16:06:51;14.50;99.90
2565;DHT22;1292;48.020;7.822;2023-02-18T16:09:24;14.40;99.90
2565;DHT22;1292;48.020;7.822;2023-02-18T16:11:55;14.30;99.90
2565;DHT22;1292;48.020;7.822;2023-02-18T16:14:27;14.40;99.90
2565;DHT22;1292;48.020;7.822;2023-02-18T16:17:08;14.30;99.90
2565;DHT22;1292;48.020;7.822;2023-02-18T16:19:48;14.30;99.90
2565;DHT22;1292;48.020;7.822;2023-02-18T16:22:32;14.20;99.90
2565;DHT22;1292;48.020;7.822;2023-02-18T16:25:06;14.10;99.90
2565;DHT22;1292;48.020;7.822;2023-02-18T16:27:36;14.10;99.90
2565;DHT22;1292;48.020;7.822;2023-02-18T16:30:14;14.00;99.90
2565;DHT22;1292;48.020;7.822;2023-02-18T16:32:41;14.00;99.90
2565;DHT22;1292;48.020;7.822;2023-02-18T16:35:08;14.00;99.90
2565;DHT22;1292;48.020;7.822;2023-02-18T16:37:35;13.90;99.90
2565;DHT22;1292;48.020;7.822;2023-02-18T16:40:22;13.90;99.90
2565;DHT22;1292;48.020;7.822;2023-02-18T16:42:51;13.90;99.90
2565;DHT22;1292;48.020;7.822;2023-02-18T16:45:18;13.80;99.90
2565;DHT22;1292;48.020;7.822;2023-02-18T16:47:47;13.80;99.90
2565;DHT22;1292;48.020;7.822;2023-02-18T16:50:17;13.80;99.90
2565;DHT22;1292;48.020;7.822;2023-02-18T16:52:44;13.70;99.90
2565;DHT22;1292;48.020;7.822;2023-02-18T16:55:16;13.60;99.90
2565;DHT22;1292;48.020;7.822;2023-02-18T16:57:44;13.70;99.90
2565;DHT22;1292;48.020;7.822;2023-02-18T17:00:14;13.60;99.90
2565;DHT22;1292;48.020;7.822;2023-02-18T17:02:42;13.60;99.90
2565;DHT22;1292;48.020;7.822;2023-02-18T17:05:15;13.50;99.90
2565;DHT22;1292;48.020;7.822;2023-02-18T17:07:42;13.50;99.90
2565;DHT22;1292;48.020;7.822;2023-02-18T17:10:10;13.50;99.90
2565;DHT22;1292;48.020;7.822;2023-02-18T17:12:37;13.40;99.90
2565;DHT22;1292;48.020;7.822;2023-02-18T17:15:14;13.40;99.90
2565;DHT22;1292;48.020;7.822;2023-02-18T17:17:43;13.40;99.90
2565;DHT22;1292;48.020;7.822;2023-02-18T17:20:10;13.40;99.90
2565;DHT22;1292;48.020;7.822;2023-02-18T17:22:39;13.30;99.90
2565;DHT22;1292;48.020;7.822;2023-02-18T17:25:10;13.20;99.90
2565;DHT22;1292;48.020;7.822;2023-02-18T17:27:37;13.20;99.90
2565;DHT22;1292;48.020;7.822;2023-02-18T17:30:04;13.20;99.90
2565;DHT22;1292;48.020;7.822;2023-02-18T17:32:33;13.10;99.90
2565;DHT22;1292;48.020;7.822;2023-02-18T17:34:59;13.20;99.90
2565;DHT22;1292;48.020;7.822;2023-02-18T17:37:26;13.10;99.90
2565;DHT22;1292;48.020;7.822;2023-02-18T17:39:53;13.10;99.90
2565;DHT22;1292;48.020;7.822;2023-02-18T17:42:20;13.00;99.90
2565;DHT22;1292;48.020;7.822;2023-02-18T17:44:47;13.00;99.90
2565;DHT22;1292;48.020;7.822;2023-02-18T17:47:14;13.00;99.90
2565;DHT22;1292;48.020;7.822;2023-02-18T17:49:42;13.00;99.90
2565;DHT22;1292;48.020;7.822;2023-02-18T17:52:21;13.00;99.90
2565;DHT22;1292;48.020;7.822;2023-02-18T17:54:51;13.00;99.90
2565;DHT22;1292;48.020;7.822;2023-02-18T17:57:18;13.00;99.90
2565;DHT22;1292;48.020;7.822;2023-02-18T17:59:45;13.00;99.90
2565;DHT22;1292;48.020;7.822;2023-02-18T18:02:23;13.00;99.90
2565;DHT22;1292;48.020;7.822;2023-02-18T18:04:52;13.00;99.90
2565;DHT22;1292;48.020;7.822;2023-02-18T18:07:19;13.00;99.90
2565;DHT22;1292;48.020;7.822;2023-02-18T18:09:46;12.90;99.90
2565;DHT22;1292;48.020;7.822;2023-02-18T18:12:13;13.00;99.90
2565;DHT22;1292;48.020;7.822;2023-02-18T18:14:41;13.00;99.90
2565;DHT22;1292;48.020;7.822;2023-02-18T18:17:09;12.90;99.90
2565;DHT22;1292;48.020;7.822;2023-02-18T18:19:36;12.90;99.90
2565;DHT22;1292;48.020;7.822;2023-02-18T18:22:05;13.00;99.90
2565;DHT22;1292;48.020;7.822;2023-02-18T18:24:32;12.90;99.90
2565;DHT22;1292;48.020;7.822;2023-02-18T18:26:59;12.90;99.90
2565;DHT22;1292;48.020;7.822;2023-02-18T18:29:26;12.90;99.90
2565;DHT22;1292;48.020;7.822;2023-02-18T18:31:53;12.90;99.90
2565;DHT22;1292;48.020;7.822;2023-02-18T18:34:19;12.90;99.90
2565;DHT22;1292;48.020;7.822;2023-02-18T18:36:46;12.90;99.90
2565;DHT22;1292;48.020;7.822;2023-02-18T18:39:14;12.90;99.90
2565;DHT22;1292;48.020;7.822;2023-02-18T18:41:41;12.90;99.90
2565;DHT22;1292;48.020;7.822;2023-02-18T18:44:09;12.80;99.90
2565;DHT22;1292;48.020;7.822;2023-02-18T18:46:36;12.80;99.90
2565;DHT22;1292;48.020;7.822;2023-02-18T18:49:03;12.80;99.90
2565;DHT22;1292;48.020;7.822;2023-02-18T18:51:30;12.90;99.90
2565;DHT22;1292;48.020;7.822;2023-02-18T18:53:58;12.80;99.90
2565;DHT22;1292;48.020;7.822;2023-02-18T18:56:26;12.70;99.90
2565;DHT22;1292;48.020;7.822;2023-02-18T18:58:53;12.70;99.90
2565;DHT22;1292;48.020;7.822;2023-02-18T19:01:21;12.70;99.90
2565;DHT22;1292;48.020;7.822;2023-02-18T19:03:51;12.80;99.90
2565;DHT22;1292;48.020;7.822;2023-02-18T19:06:18;12.80;99.90
2565;DHT22;1292;48.020;7.822;2023-02-18T19:08:45;12.70;99.90
2565;DHT22;1292;48.020;7.822;2023-02-18T19:11:13;12.70;99.90
2565;DHT22;1292;48.020;7.822;2023-02-18T19:13:41;12.70;99.90
2565;DHT22;1292;48.020;7.822;2023-02-18T19:16:15;12.70;99.90
2565;DHT22;1292;48.020;7.822;2023-02-18T19:18:42;12.70;99.90
2565;DHT22;1292;48.020;7.822;2023-02-18T19:21:09;12.70;99.90
2565;DHT22;1292;48.020;7.822;2023-02-18T19:23:37;12.70;99.90
2565;DHT22;1292;48.020;7.822;2023-02-18T19:26:04;12.60;99.90
2565;DHT22;1292;48.020;7.822;2023-02-18T19:28:31;12.60;99.90
2565;DHT22;1292;48.020;7.822;2023-02-18T19:31:00;12.60;99.90
2565;DHT22;1292;48.020;7.822;2023-02-18T19:33:26;12.60;99.90
2565;DHT22;1292;48.020;7.822;2023-02-18T19:35:53;12.70;99.90
2565;DHT22;1292;48.020;7.822;2023-02-18T19:38:20;12.60;99.90
2565;DHT22;1292;48.020;7.822;2023-02-18T19:40:47;12.60;99.90
2565;DHT22;1292;48.020;7.822;2023-02-18T19:43:14;12.70;99.90
2565;DHT22;1292;48.020;7.822;2023-02-18T19:45:42;12.70;99.90
2565;DHT22;1292;48.020;7.822;2023-02-18T19:48:12;12.70;99.90
2565;DHT22;1292;48.020;7.822;2023-02-18T19:50:40;12.70;99.90
2565;DHT22;1292;48.020;7.822;2023-02-18T19:53:07;12.70;99.90
2565;DHT22;1292;48.020;7.822;2023-02-18T19:55:34;12.80;99.90
2565;DHT22;1292;48.020;7.822;2023-02-18T19:58:00;12.70;99.90
2565;DHT22;1292;48.020;7.822;2023-02-18T20:00:27;12.70;99.90
2565;DHT22;1292;48.020;7.822;2023-02-18T20:02:54;12.80;99.90
2565;DHT22;1292;48.020;7.822;2023-02-18T20:05:22;12.70;99.90
2565;DHT22;1292;48.020;7.822;2023-02-18T20:07:49;12.80;99.90
2565;DHT22;1292;48.020;7.822;2023-02-18T20:10:17;12.80;99.90
2565;DHT22;1292;48.020;7.822;2023-02-18T20:12:45;12.80;99.90
2565;DHT22;1292;48.020;7.822;2023-02-18T20:15:16;12.80;99.90
2565;DHT22;1292;48.020;7.822;2023-02-18T20:17:43;12.80;99.90
2565;DHT22;1292;48.020;7.822;2023-02-18T20:20:10;12.80;99.90
2565;DHT22;1292;48.020;7.822;2023-02-18T20:22:38;12.80;99.90
2565;DHT22;1292;48.020;7.822;2023-02-18T20:25:05;12.80;99.90
2565;DHT22;1292;48.020;7.822;2023-02-18T20:27:32;12.80;99.90
2565;DHT22;1292;48.020;7.822;2023-02-18T20:30:01;12.80;99.90
2565;DHT22;1292;48.020;7.822;2023-02-18T20:32:28;12.90;99.90
2565;DHT22;1292;48.020;7.822;2023-02-18T20:34:55;12.90;99.90
2565;DHT22;1292;48.020;7.822;2023-02-18T20:37:22;12.90;99.90
2565;DHT22;1292;48.020;7.822;2023-02-18T20:39:50;12.90;99.90
2565;DHT22;1292;48.020;7.822;2023-02-18T20:42:17;12.90;99.90
2565;DHT22;1292;48.020;7.822;2023-02-18T20:44:44;12.90;99.90
2565;DHT22;1292;48.020;7.822;2023-02-18T20:47:11;12.90;99.90
2565;DHT22;1292;48.020;7.822;2023-02-18T20:49:38;13.00;99.90
2565;DHT22;1292;48.020;7.822;2023-02-18T20:52:06;13.00;99.90
2565;DHT22;1292;48.020;7.822;2023-02-18T20:54:33;12.90;99.90
2565;DHT22;1292;48.020;7.822;2023-02-18T20:57:01;12.90;99.90
2565;DHT22;1292;48.020;7.822;2023-02-18T20:59:28;13.00;99.90
2565;DHT22;1292;48.020;7.822;2023-02-18T21:01:57;12.90;99.90
2565;DHT22;1292;48.020;7.822;2023-02-18T21:04:24;12.90;99.90
2565;DHT22;1292;48.020;7.822;2023-02-18T21:06:51;12.90;99.90
2565;DHT22;1292;48.020;7.822;2023-02-18T21:09:18;12.90;99.90
2565;DHT22;1292;48.020;7.822;2023-02-18T21:11:46;12.90;99.90
2565;DHT22;1292;48.020;7.822;2023-02-18T21:14:14;12.90;99.90
2565;DHT22;1292;48.020;7.822;2023-02-18T21:16:41;12.90;99.90
2565;DHT22;1292;48.020;7.822;2023-02-18T21:19:11;12.90;99.90
2565;DHT22;1292;48.020;7.822;2023-02-18T21:21:38;12.90;99.90
2565;DHT22;1292;48.020;7.822;2023-02-18T21:24:05;12.90;99.90
2565;DHT22;1292;48.020;7.822;2023-02-18T21:26:32;12.90;99.90
2565;DHT22;1292;48.020;7.822;2023-02-18T21:29:01;12.80;99.90
2565;DHT22;1292;48.020;7.822;2023-02-18T21:31:32;12.90;99.90
2565;DHT22;1292;48.020;7.822;2023-02-18T21:34:00;12.80;99.90
2565;DHT22;1292;48.020;7.822;2023-02-18T21:36:28;12.80;99.90
2565;DHT22;1292;48.020;7.822;2023-02-18T21:38:56;12.80;99.90
2565;DHT22;1292;48.020;7.822;2023-02-18T21:41:24;12.80;99.90
2565;DHT22;1292;48.020;7.822;2023-02-18T21:43:51;12.80;99.90
2565;DHT22;1292;48.020;7.822;2023-02-18T21:46:21;12.70;99.90
2565;DHT22;1292;48.020;7.822;2023-02-18T21:48:49;12.70;99.90
2565;DHT22;1292;48.020;7.822;2023-02-18T21:51:32;12.70;99.90
2565;DHT22;1292;48.020;7.822;2023-02-18T21:54:17;12.70;99.90
2565;DHT22;1292;48.020;7.822;2023-02-18T21:56:44;12.70;99.90
2565;DHT22;1292;48.020;7.822;2023-02-18T21:59:11;12.70;99.90
